createdAt,value
2022-09-01T00:03:20.142Z,0
2022-09-01T00:14:00.767Z,0
2022-09-01T00:24:46.405Z,0
2022-09-01T00:30:08.644Z,0
2022-09-01T00:35:37.715Z,0
2022-09-01T00:41:00.461Z,0
2022-09-01T00:46:29.627Z,0
2022-09-01T00:51:52.368Z,0
2022-09-01T00:57:14.677Z,0
2022-09-01T01:02:37.367Z,0
2022-09-01T01:08:06.211Z,0
2022-09-01T01:13:28.795Z,0
2022-09-01T01:23:55.737Z,0
2022-09-01T01:29:18.211Z,0
2022-09-01T01:34:40.733Z,0
2022-09-01T01:40:03.426Z,0
2022-09-01T01:45:25.724Z,0
2022-09-01T01:50:47.990Z,0
2022-09-01T02:12:20.896Z,0
2022-09-01T02:17:43.653Z,0
2022-09-01T02:23:05.934Z,0
2022-09-01T02:28:31.021Z,0
2022-09-01T02:33:54.002Z,0
2022-09-01T02:39:19.455Z,0
2022-09-01T02:44:41.938Z,0
2022-09-01T02:50:04.316Z,0
2022-09-01T02:55:26.818Z,0
2022-09-01T03:00:49.558Z,0
2022-09-01T03:06:11.990Z,0
2022-09-01T03:11:35.910Z,0
2022-09-01T03:17:03.672Z,0
2022-09-01T03:22:26.764Z,0
2022-09-01T03:27:49.234Z,0
2022-09-01T03:33:11.602Z,1
2022-09-01T03:44:15.788Z,0
2022-09-01T03:49:38.577Z,0
2022-09-01T03:55:00.908Z,0
2022-09-01T04:00:23.657Z,0
2022-09-01T04:05:46.006Z,0
2022-09-01T04:11:25.290Z,0
2022-09-01T04:17:30.606Z,0
2022-09-01T04:22:53.728Z,0
2022-09-01T04:28:16.240Z,0
2022-09-01T04:33:38.671Z,4
2022-09-01T04:39:02.380Z,11
2022-09-01T04:49:48.981Z,32.1
2022-09-01T04:55:11.373Z,36.1
2022-09-01T05:00:34.063Z,39
2022-09-01T05:05:57.140Z,58.4
2022-09-01T05:11:20.623Z,52.4
2022-09-01T05:22:06.156Z,69.4
2022-09-01T05:27:29.684Z,80.6
2022-09-01T05:37:55.037Z,125.3
2022-09-01T05:43:18.056Z,235.2
2022-09-01T05:48:41.542Z,256.4
2022-09-01T05:54:07.243Z,242.3
2022-09-01T06:04:59.824Z,262
2022-09-01T06:10:22.245Z,272.2
2022-09-01T06:15:45.059Z,282.6
2022-09-01T06:21:10.148Z,287.6
2022-09-01T06:26:32.690Z,316.1
2022-09-01T06:31:55.385Z,662.3
2022-09-01T06:37:18.166Z,397.5
2022-09-01T06:42:41.391Z,1971.6
2022-09-01T06:48:04.031Z,508.3
2022-09-01T06:53:35.946Z,839.2
2022-09-01T06:58:59.867Z,413.4
2022-09-01T07:04:26.033Z,467.4
2022-09-01T07:28:05.700Z,2815.5
2022-09-01T07:33:48.007Z,1746.4
2022-09-01T07:39:50.085Z,1574.7
2022-09-01T07:45:33.575Z,1694.1
2022-09-01T07:51:42.803Z,1956.9
2022-09-01T07:57:06.602Z,1900.5
2022-09-01T08:02:30.360Z,2258
2022-09-01T08:07:53.293Z,2408.8
2022-09-01T08:13:22.294Z,2484.1
2022-09-01T08:23:48.256Z,2687.5
2022-09-01T08:29:11.290Z,2891.7
2022-09-01T08:34:34.139Z,2929.5
2022-09-01T08:40:00.025Z,3012.1
2022-09-01T08:45:23.480Z,3197.8
2022-09-01T08:50:53.246Z,3305.2
2022-09-01T08:56:16.140Z,3111.6
2022-09-01T09:01:39.412Z,3032.5
2022-09-01T09:17:47.975Z,3397.8
2022-09-01T09:23:10.866Z,3164.5
2022-09-01T09:28:33.606Z,3279.2
2022-09-01T09:33:57.371Z,3608.8
2022-09-01T09:39:23.214Z,3379.7
2022-09-01T09:44:46.259Z,3268.6
2022-09-01T09:50:09.159Z,3334.1
2022-09-01T09:55:31.859Z,3473.7
2022-09-01T10:00:54.773Z,3488.6
2022-09-01T10:06:19.836Z,3601.7
2022-09-01T10:11:59.845Z,3560.1
2022-09-01T10:17:26.622Z,3613.1
2022-09-01T10:22:53.425Z,4210.7
2022-09-01T10:28:22.642Z,3613.7
2022-09-01T10:39:17.239Z,4083.4
2022-09-01T10:44:39.744Z,3865.1
2022-09-01T10:50:13.284Z,4239
2022-09-01T10:55:36.093Z,4237.8
2022-09-01T11:01:49.399Z,4162.7
2022-09-01T11:07:13.238Z,3931.6
2022-09-01T11:12:42.544Z,3587.9
2022-09-01T11:18:05.484Z,3336.5
2022-09-01T11:23:28.556Z,2010.3
2022-09-01T11:28:51.053Z,4065.4
2022-09-01T11:34:14.624Z,1903.2
2022-09-01T11:39:37.505Z,801.3
2022-09-01T11:45:04.547Z,4271.6
2022-09-01T11:50:27.763Z,3599.7
2022-09-01T11:55:54.338Z,582.5
2022-09-01T12:01:15.666Z,4381.4
2022-09-01T12:06:37.450Z,3696
2022-09-01T12:12:01.227Z,3886.7
2022-09-01T12:17:24.175Z,3574.2
2022-09-01T12:22:46.352Z,760.1
2022-09-01T12:38:58.248Z,3752.2
2022-09-01T12:49:55.853Z,3406
2022-09-01T12:55:48.808Z,3568.6
2022-09-01T13:01:17.308Z,3564.8
2022-09-01T13:06:47.614Z,3027.2
2022-09-01T13:12:11.361Z,3635.5
2022-09-01T13:17:34.463Z,3593.6
2022-09-01T13:23:15.253Z,3616.3
2022-09-01T13:28:41.177Z,3634.4
2022-09-01T13:34:27.722Z,3605.3
2022-09-01T13:39:50.850Z,3171.6
2022-09-01T13:45:16.502Z,3548
2022-09-01T13:51:19.265Z,3442.6
2022-09-01T13:56:42.507Z,3398
2022-09-01T14:02:08.875Z,3400.5
2022-09-01T14:07:31.346Z,3575
2022-09-01T14:12:54.419Z,853.1
2022-09-01T14:18:15.912Z,482.2
2022-09-01T14:23:36.977Z,3443.6
2022-09-01T14:29:01.398Z,3386.8
2022-09-01T14:34:27.397Z,3084.7
2022-09-01T14:39:50.148Z,2929.8
2022-09-01T14:45:12.135Z,2830.8
2022-09-01T14:50:37.806Z,1226.3
2022-09-01T14:55:58.603Z,333.8
2022-09-01T15:01:35.522Z,295.7
2022-09-01T15:06:58.338Z,335.1
2022-09-01T15:12:32.049Z,496.9
2022-09-01T15:17:55.057Z,554.3
2022-09-01T15:23:17.618Z,470.3
2022-09-01T15:28:42.399Z,396.4
2022-09-01T15:34:05.840Z,367.1
2022-09-01T15:39:38.686Z,343.1
2022-09-01T15:50:28.079Z,364.8
2022-09-01T15:56:12.790Z,367
2022-09-01T16:01:36.001Z,324
2022-09-01T16:07:07.687Z,279.9
2022-09-01T16:17:55.696Z,220.8
2022-09-01T16:23:21.429Z,211.8
2022-09-01T16:28:43.810Z,226.5
2022-09-01T16:34:08.570Z,205.8
2022-09-01T16:39:31.227Z,185
2022-09-01T16:44:53.691Z,153.6
2022-09-01T16:50:20.108Z,188.3
2022-09-01T16:55:42.771Z,175.4
2022-09-01T17:01:12.286Z,165.4
2022-09-01T17:06:35.674Z,147.8
2022-09-01T17:11:58.434Z,127.9
2022-09-01T17:17:21.909Z,117.7
2022-09-01T17:22:44.247Z,113.3
2022-09-01T17:28:12.072Z,107.8
2022-09-01T17:33:34.321Z,69.6
2022-09-01T17:49:42.418Z,56.7
2022-09-01T17:55:07.073Z,43.3
2022-09-01T18:00:30.089Z,33.7
2022-09-01T18:05:53.068Z,31.2
2022-09-01T18:11:15.582Z,27
2022-09-01T18:16:38.275Z,19
2022-09-01T18:22:00.904Z,10
2022-09-01T18:27:32.810Z,5
2022-09-01T18:32:56.101Z,0
2022-09-01T18:38:18.430Z,0
2022-09-01T18:43:40.874Z,0
2022-09-01T18:49:06.391Z,0
2022-09-01T18:54:46.640Z,0
2022-09-01T19:00:19.751Z,0
2022-09-01T19:06:01.057Z,0
2022-09-01T19:11:24.039Z,0
2022-09-01T19:16:47.195Z,0
2022-09-01T19:28:07.515Z,0
2022-09-01T19:33:37.233Z,0
2022-09-01T19:39:03.751Z,0
2022-09-01T19:55:13.317Z,0
2022-09-01T20:00:36.250Z,0
2022-09-01T20:05:58.697Z,0
2022-09-01T20:16:24.243Z,0
2022-09-01T20:21:47.959Z,0
2022-09-01T20:27:10.322Z,0
2022-09-01T20:32:36.871Z,0
2022-09-01T20:37:59.211Z,0
2022-09-01T20:43:24.478Z,0
2022-09-01T20:48:58.957Z,0
2022-09-01T20:54:21.550Z,0
2022-09-01T20:59:46.555Z,0
2022-09-01T21:05:12.481Z,0
2022-09-01T21:10:36.579Z,0
2022-09-01T21:15:58.982Z,0
2022-09-01T21:32:10.283Z,0
2022-09-01T21:37:32.847Z,0
2022-09-01T21:48:21.118Z,0
2022-09-01T22:00:26.846Z,0
2022-09-01T22:05:55.583Z,0
2022-09-01T22:11:18.142Z,0
2022-09-01T22:16:40.890Z,0
2022-09-01T22:22:08.434Z,0
2022-09-01T22:27:31.244Z,0
2022-09-01T22:32:53.902Z,0
2022-09-01T22:38:16.720Z,0
2022-09-01T22:43:48.084Z,0
2022-09-01T22:49:10.816Z,0
2022-09-01T22:54:33.933Z,0
2022-09-01T22:59:57.009Z,0
2022-09-01T23:05:19.441Z,0
2022-09-01T23:10:42.330Z,0
2022-09-01T23:21:51.456Z,0
2022-09-01T23:27:13.845Z,0
2022-09-01T23:32:36.959Z,0
2022-09-01T23:37:59.694Z,0
2022-09-01T23:54:07.846Z,0
2022-09-01T23:59:30.221Z,0
